sensor_id;sensor_type;location;lat;lon;timestamp;temperature;humidity
15257;DHT22;7731;50.720;6.912;2022-09-23T00:01:23;11.10;99.90
15257;DHT22;7731;50.720;6.912;2022-09-23T00:03:53;11.20;99.90
15257;DHT22;7731;50.720;6.912;2022-09-23T00:06:26;11.20;99.90
15257;DHT22;7731;50.720;6.912;2022-09-23T00:09:01;11.10;99.90
15257;DHT22;7731;50.720;6.912;2022-09-23T00:11:35;11.10;99.90
15257;DHT22;7731;50.720;6.912;2022-09-23T00:14:06;11.10;99.90
15257;DHT22;7731;50.720;6.912;2022-09-23T00:16:36;11.00;99.90
15257;DHT22;7731;50.720;6.912;2022-09-23T00:19:08;11.10;99.90
15257;DHT22;7731;50.720;6.912;2022-09-23T00:21:41;11.10;99.90
15257;DHT22;7731;50.720;6.912;2022-09-23T00:24:14;11.10;99.90
15257;DHT22;7731;50.720;6.912;2022-09-23T00:26:45;11.10;99.90
15257;DHT22;7731;50.720;6.912;2022-09-23T00:29:16;11.20;99.90
15257;DHT22;7731;50.720;6.912;2022-09-23T00:31:46;11.10;99.90
15257;DHT22;7731;50.720;6.912;2022-09-23T00:34:16;11.10;99.90
15257;DHT22;7731;50.720;6.912;2022-09-23T00:36:47;11.10;99.90
15257;DHT22;7731;50.720;6.912;2022-09-23T00:39:20;11.10;99.90
15257;DHT22;7731;50.720;6.912;2022-09-23T00:41:51;11.00;99.90
15257;DHT22;7731;50.720;6.912;2022-09-23T00:44:41;11.00;99.90
15257;DHT22;7731;50.720;6.912;2022-09-23T00:47:20;11.10;99.90
15257;DHT22;7731;50.720;6.912;2022-09-23T00:49:57;11.10;99.90
15257;DHT22;7731;50.720;6.912;2022-09-23T00:52:32;11.10;99.90
15257;DHT22;7731;50.720;6.912;2022-09-23T00:55:17;11.10;99.90
15257;DHT22;7731;50.720;6.912;2022-09-23T00:57:55;11.20;99.90
15257;DHT22;7731;50.720;6.912;2022-09-23T01:00:30;11.10;99.90
15257;DHT22;7731;50.720;6.912;2022-09-23T01:03:06;11.20;99.90
15257;DHT22;7731;50.720;6.912;2022-09-23T01:05:48;11.20;99.90
15257;DHT22;7731;50.720;6.912;2022-09-23T01:08:20;11.20;99.90
15257;DHT22;7731;50.720;6.912;2022-09-23T01:11:05;11.20;99.90
15257;DHT22;7731;50.720;6.912;2022-09-23T01:13:51;11.30;99.90
15257;DHT22;7731;50.720;6.912;2022-09-23T01:16:35;11.20;99.90
15257;DHT22;7731;50.720;6.912;2022-09-23T01:19:35;11.20;99.90
15257;DHT22;7731;50.720;6.912;2022-09-23T01:22:29;11.30;99.90
15257;DHT22;7731;50.720;6.912;2022-09-23T01:25:30;11.30;99.90
15257;DHT22;7731;50.720;6.912;2022-09-23T01:28:32;11.30;99.90
15257;DHT22;7731;50.720;6.912;2022-09-23T01:31:27;11.30;99.90
15257;DHT22;7731;50.720;6.912;2022-09-23T01:34:08;11.30;99.90
15257;DHT22;7731;50.720;6.912;2022-09-23T01:36:47;11.20;99.90
15257;DHT22;7731;50.720;6.912;2022-09-23T01:39:33;11.00;99.90
15257;DHT22;7731;50.720;6.912;2022-09-23T01:42:13;10.80;99.90
15257;DHT22;7731;50.720;6.912;2022-09-23T01:44:52;10.70;99.90
15257;DHT22;7731;50.720;6.912;2022-09-23T01:47:32;10.70;99.90
15257;DHT22;7731;50.720;6.912;2022-09-23T01:50:13;10.70;99.90
15257;DHT22;7731;50.720;6.912;2022-09-23T01:53:02;10.70;99.90
15257;DHT22;7731;50.720;6.912;2022-09-23T01:55:42;10.80;99.90
15257;DHT22;7731;50.720;6.912;2022-09-23T01:58:23;10.80;99.90
15257;DHT22;7731;50.720;6.912;2022-09-23T02:00:59;10.90;99.90
15257;DHT22;7731;50.720;6.912;2022-09-23T02:03:40;10.90;99.90
15257;DHT22;7731;50.720;6.912;2022-09-23T02:06:18;10.90;99.90
15257;DHT22;7731;50.720;6.912;2022-09-23T02:08:54;10.90;99.90
15257;DHT22;7731;50.720;6.912;2022-09-23T02:11:33;10.80;99.90
15257;DHT22;7731;50.720;6.912;2022-09-23T02:14:09;10.70;99.90
15257;DHT22;7731;50.720;6.912;2022-09-23T02:16:44;10.60;99.90
15257;DHT22;7731;50.720;6.912;2022-09-23T02:19:23;10.50;99.90
15257;DHT22;7731;50.720;6.912;2022-09-23T02:22:03;10.40;99.90
15257;DHT22;7731;50.720;6.912;2022-09-23T02:24:38;10.20;99.90
15257;DHT22;7731;50.720;6.912;2022-09-23T02:27:16;10.20;99.90
15257;DHT22;7731;50.720;6.912;2022-09-23T02:29:56;10.10;99.90
15257;DHT22;7731;50.720;6.912;2022-09-23T02:32:44;10.00;99.90
15257;DHT22;7731;50.720;6.912;2022-09-23T02:35:30;9.90;99.90
15257;DHT22;7731;50.720;6.912;2022-09-23T02:38:13;9.90;99.90
15257;DHT22;7731;50.720;6.912;2022-09-23T02:40:54;9.70;99.90
15257;DHT22;7731;50.720;6.912;2022-09-23T02:43:41;9.70;99.90
15257;DHT22;7731;50.720;6.912;2022-09-23T02:46:20;9.60;99.90
15257;DHT22;7731;50.720;6.912;2022-09-23T02:48:53;9.50;99.90
15257;DHT22;7731;50.720;6.912;2022-09-23T02:51:31;9.40;99.90
15257;DHT22;7731;50.720;6.912;2022-09-23T02:54:06;9.40;99.90
15257;DHT22;7731;50.720;6.912;2022-09-23T02:56:40;9.40;99.90
15257;DHT22;7731;50.720;6.912;2022-09-23T02:59:11;9.40;99.90
15257;DHT22;7731;50.720;6.912;2022-09-23T03:01:58;9.40;99.90
15257;DHT22;7731;50.720;6.912;2022-09-23T03:04:46;9.40;99.90
15257;DHT22;7731;50.720;6.912;2022-09-23T03:07:34;9.40;99.90
15257;DHT22;7731;50.720;6.912;2022-09-23T03:10:19;9.40;99.90
15257;DHT22;7731;50.720;6.912;2022-09-23T03:13:00;9.30;99.90
15257;DHT22;7731;50.720;6.912;2022-09-23T03:15:47;9.30;99.90
15257;DHT22;7731;50.720;6.912;2022-09-23T03:18:29;9.30;99.90
15257;DHT22;7731;50.720;6.912;2022-09-23T03:21:11;9.30;99.90
15257;DHT22;7731;50.720;6.912;2022-09-23T03:23:51;9.30;99.90
15257;DHT22;7731;50.720;6.912;2022-09-23T03:26:27;9.30;99.90
15257;DHT22;7731;50.720;6.912;2022-09-23T03:29:07;9.20;99.90
15257;DHT22;7731;50.720;6.912;2022-09-23T03:31:42;9.10;99.90
15257;DHT22;7731;50.720;6.912;2022-09-23T03:34:19;9.10;99.90
15257;DHT22;7731;50.720;6.912;2022-09-23T03:36:59;9.20;99.90
15257;DHT22;7731;50.720;6.912;2022-09-23T03:39:39;9.20;99.90
15257;DHT22;7731;50.720;6.912;2022-09-23T03:42:14;9.20;99.90
15257;DHT22;7731;50.720;6.912;2022-09-23T03:44:52;9.20;99.90
15257;DHT22;7731;50.720;6.912;2022-09-23T03:47:25;9.10;99.90
15257;DHT22;7731;50.720;6.912;2022-09-23T03:49:57;9.00;99.90
15257;DHT22;7731;50.720;6.912;2022-09-23T03:52:28;9.00;99.90
15257;DHT22;7731;50.720;6.912;2022-09-23T03:55:01;9.00;99.90
15257;DHT22;7731;50.720;6.912;2022-09-23T03:57:35;9.00;99.90
15257;DHT22;7731;50.720;6.912;2022-09-23T04:00:06;9.00;99.90
15257;DHT22;7731;50.720;6.912;2022-09-23T04:02:38;9.00;99.90
15257;DHT22;7731;50.720;6.912;2022-09-23T04:05:12;9.00;99.90
15257;DHT22;7731;50.720;6.912;2022-09-23T04:07:44;9.00;99.90
15257;DHT22;7731;50.720;6.912;2022-09-23T04:10:19;8.90;99.90
15257;DHT22;7731;50.720;6.912;2022-09-23T04:12:50;8.90;99.90
15257;DHT22;7731;50.720;6.912;2022-09-23T04:15:36;8.90;99.90
15257;DHT22;7731;50.720;6.912;2022-09-23T04:18:14;8.90;99.90
15257;DHT22;7731;50.720;6.912;2022-09-23T04:20:44;8.90;99.90
15257;DHT22;7731;50.720;6.912;2022-09-23T04:23:14;8.90;99.90
15257;DHT22;7731;50.720;6.912;2022-09-23T04:25:49;8.90;99.90
15257;DHT22;7731;50.720;6.912;2022-09-23T04:28:19;8.90;99.90
15257;DHT22;7731;50.720;6.912;2022-09-23T04:30:52;8.90;99.90
15257;DHT22;7731;50.720;6.912;2022-09-23T04:33:24;8.80;99.90
15257;DHT22;7731;50.720;6.912;2022-09-23T04:35:59;8.80;99.90
15257;DHT22;7731;50.720;6.912;2022-09-23T04:38:35;8.80;99.90
15257;DHT22;7731;50.720;6.912;2022-09-23T04:41:10;8.80;99.90
15257;DHT22;7731;50.720;6.912;2022-09-23T04:43:41;8.80;99.90
15257;DHT22;7731;50.720;6.912;2022-09-23T04:46:13;8.80;99.90
15257;DHT22;7731;50.720;6.912;2022-09-23T04:48:44;8.80;99.90
15257;DHT22;7731;50.720;6.912;2022-09-23T04:51:23;8.70;99.90
15257;DHT22;7731;50.720;6.912;2022-09-23T04:54:03;8.70;99.90
15257;DHT22;7731;50.720;6.912;2022-09-23T04:56:36;8.60;99.90
15257;DHT22;7731;50.720;6.912;2022-09-23T04:59:07;8.50;99.90
15257;DHT22;7731;50.720;6.912;2022-09-23T05:01:37;8.50;99.90
15257;DHT22;7731;50.720;6.912;2022-09-23T05:04:13;8.50;99.90
15257;DHT22;7731;50.720;6.912;2022-09-23T05:06:43;8.50;99.90
15257;DHT22;7731;50.720;6.912;2022-09-23T05:09:16;8.50;99.90
15257;DHT22;7731;50.720;6.912;2022-09-23T05:11:49;8.40;99.90
15257;DHT22;7731;50.720;6.912;2022-09-23T05:14:22;8.40;99.90
15257;DHT22;7731;50.720;6.912;2022-09-23T05:16:52;8.40;99.90
15257;DHT22;7731;50.720;6.912;2022-09-23T05:19:25;8.40;99.90
15257;DHT22;7731;50.720;6.912;2022-09-23T05:21:55;8.30;99.90
15257;DHT22;7731;50.720;6.912;2022-09-23T05:24:28;8.30;99.90
15257;DHT22;7731;50.720;6.912;2022-09-23T05:27:01;8.40;99.90
15257;DHT22;7731;50.720;6.912;2022-09-23T05:29:33;8.40;99.90
15257;DHT22;7731;50.720;6.912;2022-09-23T05:32:07;8.40;99.90
15257;DHT22;7731;50.720;6.912;2022-09-23T05:34:37;8.40;99.90
15257;DHT22;7731;50.720;6.912;2022-09-23T05:37:11;8.30;99.90
15257;DHT22;7731;50.720;6.912;2022-09-23T05:39:41;8.40;99.90
15257;DHT22;7731;50.720;6.912;2022-09-23T05:42:19;8.50;99.90
15257;DHT22;7731;50.720;6.912;2022-09-23T05:44:49;8.60;99.90
15257;DHT22;7731;50.720;6.912;2022-09-23T05:47:22;8.80;99.90
15257;DHT22;7731;50.720;6.912;2022-09-23T05:49:53;8.80;99.90
15257;DHT22;7731;50.720;6.912;2022-09-23T05:52:33;8.90;99.90
15257;DHT22;7731;50.720;6.912;2022-09-23T05:55:04;9.10;99.90
15257;DHT22;7731;50.720;6.912;2022-09-23T05:57:40;9.20;99.90
15257;DHT22;7731;50.720;6.912;2022-09-23T06:00:11;9.30;99.90
15257;DHT22;7731;50.720;6.912;2022-09-23T06:02:42;9.30;99.90
15257;DHT22;7731;50.720;6.912;2022-09-23T06:05:12;9.40;99.90
15257;DHT22;7731;50.720;6.912;2022-09-23T06:07:51;9.50;99.90
15257;DHT22;7731;50.720;6.912;2022-09-23T06:10:21;9.60;99.90
15257;DHT22;7731;50.720;6.912;2022-09-23T06:12:55;9.70;99.90
15257;DHT22;7731;50.720;6.912;2022-09-23T06:15:28;9.90;99.90
15257;DHT22;7731;50.720;6.912;2022-09-23T06:17:59;10.10;99.90
15257;DHT22;7731;50.720;6.912;2022-09-23T06:20:29;10.30;99.90
15257;DHT22;7731;50.720;6.912;2022-09-23T06:23:10;10.50;99.90
15257;DHT22;7731;50.720;6.912;2022-09-23T06:25:40;10.60;99.90
15257;DHT22;7731;50.720;6.912;2022-09-23T06:28:13;10.80;99.90
15257;DHT22;7731;50.720;6.912;2022-09-23T06:30:43;10.90;99.90
15257;DHT22;7731;50.720;6.912;2022-09-23T06:33:24;10.90;99.90
15257;DHT22;7731;50.720;6.912;2022-09-23T06:36:04;11.00;99.90
15257;DHT22;7731;50.720;6.912;2022-09-23T06:38:38;11.10;99.90
15257;DHT22;7731;50.720;6.912;2022-09-23T06:41:13;11.20;99.90
15257;DHT22;7731;50.720;6.912;2022-09-23T06:43:49;11.40;99.90
15257;DHT22;7731;50.720;6.912;2022-09-23T06:46:21;11.60;99.90
15257;DHT22;7731;50.720;6.912;2022-09-23T06:48:51;11.90;99.90
15257;DHT22;7731;50.720;6.912;2022-09-23T06:51:21;11.90;99.90
15257;DHT22;7731;50.720;6.912;2022-09-23T06:53:52;12.10;99.90
15257;DHT22;7731;50.720;6.912;2022-09-23T06:56:22;12.00;99.90
15257;DHT22;7731;50.720;6.912;2022-09-23T06:58:57;12.00;99.90
15257;DHT22;7731;50.720;6.912;2022-09-23T07:01:27;12.10;99.90
15257;DHT22;7731;50.720;6.912;2022-09-23T07:03:57;12.20;99.90
15257;DHT22;7731;50.720;6.912;2022-09-23T07:06:27;12.40;99.90
15257;DHT22;7731;50.720;6.912;2022-09-23T07:08:57;12.30;99.90
15257;DHT22;7731;50.720;6.912;2022-09-23T07:11:32;12.40;99.90
15257;DHT22;7731;50.720;6.912;2022-09-23T07:14:05;12.60;99.90
15257;DHT22;7731;50.720;6.912;2022-09-23T07:16:35;12.80;99.90
15257;DHT22;7731;50.720;6.912;2022-09-23T07:19:14;13.00;82.00
15257;DHT22;7731;50.720;6.912;2022-09-23T07:21:45;13.20;68.10
15257;DHT22;7731;50.720;6.912;2022-09-23T07:24:17;13.50;51.50
15257;DHT22;7731;50.720;6.912;2022-09-23T07:26:48;14.00;43.90
15257;DHT22;7731;50.720;6.912;2022-09-23T07:29:21;15.40;1.00
15257;DHT22;7731;50.720;6.912;2022-09-23T07:31:55;16.70;1.00
15257;DHT22;7731;50.720;6.912;2022-09-23T07:34:39;18.20;99.90
15257;DHT22;7731;50.720;6.912;2022-09-23T07:37:10;20.70;99.90
15257;DHT22;7731;50.720;6.912;2022-09-23T07:39:40;22.50;1.00
15257;DHT22;7731;50.720;6.912;2022-09-23T07:42:10;24.40;1.00
15257;DHT22;7731;50.720;6.912;2022-09-23T07:44:44;25.00;1.00
15257;DHT22;7731;50.720;6.912;2022-09-23T07:47:16;26.10;1.00
15257;DHT22;7731;50.720;6.912;2022-09-23T07:49:46;26.50;1.00
15257;DHT22;7731;50.720;6.912;2022-09-23T07:52:17;26.80;1.00
15257;DHT22;7731;50.720;6.912;2022-09-23T07:54:52;26.80;1.00
15257;DHT22;7731;50.720;6.912;2022-09-23T07:57:22;27.50;1.00
15257;DHT22;7731;50.720;6.912;2022-09-23T07:59:55;27.90;1.00
15257;DHT22;7731;50.720;6.912;2022-09-23T08:02:26;27.30;1.00
15257;DHT22;7731;50.720;6.912;2022-09-23T08:05:00;26.40;1.00
15257;DHT22;7731;50.720;6.912;2022-09-23T08:07:31;26.10;1.00
15257;DHT22;7731;50.720;6.912;2022-09-23T08:10:02;26.20;1.00
15257;DHT22;7731;50.720;6.912;2022-09-23T08:12:45;25.90;1.00
15257;DHT22;7731;50.720;6.912;2022-09-23T08:15:18;26.40;1.00
15257;DHT22;7731;50.720;6.912;2022-09-23T08:17:51;26.70;1.00
15257;DHT22;7731;50.720;6.912;2022-09-23T08:20:31;26.70;1.00
15257;DHT22;7731;50.720;6.912;2022-09-23T08:23:17;27.10;1.00
15257;DHT22;7731;50.720;6.912;2022-09-23T08:25:56;26.90;1.00
15257;DHT22;7731;50.720;6.912;2022-09-23T08:28:26;26.90;1.00
15257;DHT22;7731;50.720;6.912;2022-09-23T08:31:07;26.00;1.00
15257;DHT22;7731;50.720;6.912;2022-09-23T08:33:52;24.90;1.00
15257;DHT22;7731;50.720;6.912;2022-09-23T08:36:24;24.10;1.00
15257;DHT22;7731;50.720;6.912;2022-09-23T08:38:57;23.20;99.90
15257;DHT22;7731;50.720;6.912;2022-09-23T08:41:57;22.50;1.00
15257;DHT22;7731;50.720;6.912;2022-09-23T08:44:44;22.10;1.00
15257;DHT22;7731;50.720;6.912;2022-09-23T08:47:27;21.30;1.00
15257;DHT22;7731;50.720;6.912;2022-09-23T08:50:14;21.10;1.00
15257;DHT22;7731;50.720;6.912;2022-09-23T08:52:52;20.90;99.90
15257;DHT22;7731;50.720;6.912;2022-09-23T08:55:31;20.60;18.90
15257;DHT22;7731;50.720;6.912;2022-09-23T08:58:25;20.50;1.00
15257;DHT22;7731;50.720;6.912;2022-09-23T09:01:09;20.30;66.80
15257;DHT22;7731;50.720;6.912;2022-09-23T09:03:49;20.30;57.40
15257;DHT22;7731;50.720;6.912;2022-09-23T09:06:27;20.30;1.00
15257;DHT22;7731;50.720;6.912;2022-09-23T09:09:22;20.90;99.90
15257;DHT22;7731;50.720;6.912;2022-09-23T09:12:00;20.90;99.90
15257;DHT22;7731;50.720;6.912;2022-09-23T09:14:42;21.10;99.90
15257;DHT22;7731;50.720;6.912;2022-09-23T09:17:22;21.30;1.00
15257;DHT22;7731;50.720;6.912;2022-09-23T09:20:20;21.00;99.90
15257;DHT22;7731;50.720;6.912;2022-09-23T09:22:55;20.90;1.00
15257;DHT22;7731;50.720;6.912;2022-09-23T09:25:38;21.00;1.00
15257;DHT22;7731;50.720;6.912;2022-09-23T09:28:18;21.20;13.10
15257;DHT22;7731;50.720;6.912;2022-09-23T09:31:04;21.10;59.80
15257;DHT22;7731;50.720;6.912;2022-09-23T09:33:53;21.50;99.90
15257;DHT22;7731;50.720;6.912;2022-09-23T09:36:37;22.30;1.00
15257;DHT22;7731;50.720;6.912;2022-09-23T09:39:13;23.00;1.00
15257;DHT22;7731;50.720;6.912;2022-09-23T09:41:51;23.30;1.00
15257;DHT22;7731;50.720;6.912;2022-09-23T09:44:31;23.70;1.00
15257;DHT22;7731;50.720;6.912;2022-09-23T09:47:15;23.80;99.90
15257;DHT22;7731;50.720;6.912;2022-09-23T09:50:03;24.00;99.90
15257;DHT22;7731;50.720;6.912;2022-09-23T09:52:41;23.30;1.00
15257;DHT22;7731;50.720;6.912;2022-09-23T09:55:28;23.20;1.00
15257;DHT22;7731;50.720;6.912;2022-09-23T09:58:11;23.20;99.90
15257;DHT22;7731;50.720;6.912;2022-09-23T10:00:45;23.80;99.90
15257;DHT22;7731;50.720;6.912;2022-09-23T10:03:25;24.80;6.20
15257;DHT22;7731;50.720;6.912;2022-09-23T10:06:19;24.90;1.00
15257;DHT22;7731;50.720;6.912;2022-09-23T10:09:21;24.50;1.00
15257;DHT22;7731;50.720;6.912;2022-09-23T10:12:11;24.30;50.10
15257;DHT22;7731;50.720;6.912;2022-09-23T10:14:45;24.50;62.00
15257;DHT22;7731;50.720;6.912;2022-09-23T10:17:20;24.70;10.50
15257;DHT22;7731;50.720;6.912;2022-09-23T10:19:55;24.50;36.30
15257;DHT22;7731;50.720;6.912;2022-09-23T10:22:37;23.70;99.90
15257;DHT22;7731;50.720;6.912;2022-09-23T10:25:18;23.20;1.00
15257;DHT22;7731;50.720;6.912;2022-09-23T10:27:50;23.80;99.90
15257;DHT22;7731;50.720;6.912;2022-09-23T10:30:22;23.70;99.90
15257;DHT22;7731;50.720;6.912;2022-09-23T10:32:55;23.60;99.90
15257;DHT22;7731;50.720;6.912;2022-09-23T10:35:25;23.10;99.90
15257;DHT22;7731;50.720;6.912;2022-09-23T10:37:59;23.30;99.90
15257;DHT22;7731;50.720;6.912;2022-09-23T10:40:37;23.80;99.90
15257;DHT22;7731;50.720;6.912;2022-09-23T10:43:27;24.00;99.90
15257;DHT22;7731;50.720;6.912;2022-09-23T10:46:26;25.00;1.00
15257;DHT22;7731;50.720;6.912;2022-09-23T10:52:54;24.70;1.00
15257;DHT22;7731;50.720;6.912;2022-09-23T10:55:42;23.80;99.90
15257;DHT22;7731;50.720;6.912;2022-09-23T10:59:08;23.40;99.90
15257;DHT22;7731;50.720;6.912;2022-09-23T11:02:06;24.20;58.50
15257;DHT22;7731;50.720;6.912;2022-09-23T11:08:19;23.90;99.90
15257;DHT22;7731;50.720;6.912;2022-09-23T11:11:15;24.10;1.00
15257;DHT22;7731;50.720;6.912;2022-09-23T11:14:07;24.60;1.00
15257;DHT22;7731;50.720;6.912;2022-09-23T11:17:13;24.60;1.00
15257;DHT22;7731;50.720;6.912;2022-09-23T11:20:18;25.00;1.00
15257;DHT22;7731;50.720;6.912;2022-09-23T11:26:30;25.40;1.00
15257;DHT22;7731;50.720;6.912;2022-09-23T11:29:26;25.50;1.00
15257;DHT22;7731;50.720;6.912;2022-09-23T11:32:31;25.10;1.00
15257;DHT22;7731;50.720;6.912;2022-09-23T11:35:25;24.70;1.00
15257;DHT22;7731;50.720;6.912;2022-09-23T11:38:04;24.70;1.00
15257;DHT22;7731;50.720;6.912;2022-09-23T11:40:41;24.90;1.00
15257;DHT22;7731;50.720;6.912;2022-09-23T11:43:22;24.30;1.00
15257;DHT22;7731;50.720;6.912;2022-09-23T11:45:57;23.60;1.00
15257;DHT22;7731;50.720;6.912;2022-09-23T11:48:34;23.10;1.00
15257;DHT22;7731;50.720;6.912;2022-09-23T11:51:15;23.00;1.00
15257;DHT22;7731;50.720;6.912;2022-09-23T11:53:53;23.00;1.00
15257;DHT22;7731;50.720;6.912;2022-09-23T11:56:35;23.10;1.00
15257;DHT22;7731;50.720;6.912;2022-09-23T11:59:30;23.20;1.00
15257;DHT22;7731;50.720;6.912;2022-09-23T12:02:16;23.60;1.00
15257;DHT22;7731;50.720;6.912;2022-09-23T12:05:00;23.60;1.00
15257;DHT22;7731;50.720;6.912;2022-09-23T12:07:44;23.40;1.00
15257;DHT22;7731;50.720;6.912;2022-09-23T12:10:25;23.40;1.00
15257;DHT22;7731;50.720;6.912;2022-09-23T12:13:09;23.30;1.00
15257;DHT22;7731;50.720;6.912;2022-09-23T12:16:01;23.50;1.00
15257;DHT22;7731;50.720;6.912;2022-09-23T12:18:58;23.40;1.00
15257;DHT22;7731;50.720;6.912;2022-09-23T12:21:49;23.00;1.00
15257;DHT22;7731;50.720;6.912;2022-09-23T12:24:49;22.90;1.00
15257;DHT22;7731;50.720;6.912;2022-09-23T12:27:31;23.00;11.50
15257;DHT22;7731;50.720;6.912;2022-09-23T12:30:13;22.90;17.50
15257;DHT22;7731;50.720;6.912;2022-09-23T12:32:50;23.00;1.00
15257;DHT22;7731;50.720;6.912;2022-09-23T12:35:23;22.70;1.00
15257;DHT22;7731;50.720;6.912;2022-09-23T12:38:00;22.70;12.70
15257;DHT22;7731;50.720;6.912;2022-09-23T12:40:34;22.40;99.90
15257;DHT22;7731;50.720;6.912;2022-09-23T12:43:27;22.30;99.90
15257;DHT22;7731;50.720;6.912;2022-09-23T12:46:16;22.00;99.90
15257;DHT22;7731;50.720;6.912;2022-09-23T12:49:04;22.20;99.90
15257;DHT22;7731;50.720;6.912;2022-09-23T12:52:12;22.40;99.90
15257;DHT22;7731;50.720;6.912;2022-09-23T12:54:57;22.20;99.90
15257;DHT22;7731;50.720;6.912;2022-09-23T12:57:56;22.00;99.90
15257;DHT22;7731;50.720;6.912;2022-09-23T13:00:27;21.70;99.90
15257;DHT22;7731;50.720;6.912;2022-09-23T13:03:00;21.60;99.90
15257;DHT22;7731;50.720;6.912;2022-09-23T13:05:51;21.70;99.90
15257;DHT22;7731;50.720;6.912;2022-09-23T13:08:42;21.90;99.90
15257;DHT22;7731;50.720;6.912;2022-09-23T13:11:20;21.70;99.90
15257;DHT22;7731;50.720;6.912;2022-09-23T13:13:59;21.70;1.00
15257;DHT22;7731;50.720;6.912;2022-09-23T13:16:34;21.80;1.00
15257;DHT22;7731;50.720;6.912;2022-09-23T13:22:57;22.10;1.00
15257;DHT22;7731;50.720;6.912;2022-09-23T13:25:38;22.20;1.00
15257;DHT22;7731;50.720;6.912;2022-09-23T13:28:24;22.30;1.00
15257;DHT22;7731;50.720;6.912;2022-09-23T13:31:04;22.20;3.70
15257;DHT22;7731;50.720;6.912;2022-09-23T13:33:42;22.10;1.00
15257;DHT22;7731;50.720;6.912;2022-09-23T13:36:18;22.10;1.00
15257;DHT22;7731;50.720;6.912;2022-09-23T13:38:51;22.10;1.00
15257;DHT22;7731;50.720;6.912;2022-09-23T13:41:23;22.10;1.00
15257;DHT22;7731;50.720;6.912;2022-09-23T13:43:56;22.00;1.00
15257;DHT22;7731;50.720;6.912;2022-09-23T13:46:40;22.00;1.00
15257;DHT22;7731;50.720;6.912;2022-09-23T13:49:20;21.80;99.90
15257;DHT22;7731;50.720;6.912;2022-09-23T13:52:02;21.80;99.90
15257;DHT22;7731;50.720;6.912;2022-09-23T13:54:47;21.80;99.90
15257;DHT22;7731;50.720;6.912;2022-09-23T13:57:26;21.70;1.00
15257;DHT22;7731;50.720;6.912;2022-09-23T14:00:15;21.60;1.00
15257;DHT22;7731;50.720;6.912;2022-09-23T14:02:47;21.40;1.00
15257;DHT22;7731;50.720;6.912;2022-09-23T14:05:22;21.20;67.40
15257;DHT22;7731;50.720;6.912;2022-09-23T14:07:55;21.10;1.00
15257;DHT22;7731;50.720;6.912;2022-09-23T14:10:30;20.90;90.40
15257;DHT22;7731;50.720;6.912;2022-09-23T14:13:03;20.80;99.90
15257;DHT22;7731;50.720;6.912;2022-09-23T14:15:36;20.70;1.00
15257;DHT22;7731;50.720;6.912;2022-09-23T14:18:06;20.70;1.00
15257;DHT22;7731;50.720;6.912;2022-09-23T14:20:45;20.70;99.90
15257;DHT22;7731;50.720;6.912;2022-09-23T14:23:25;20.80;1.00
15257;DHT22;7731;50.720;6.912;2022-09-23T14:25:59;20.60;99.90
15257;DHT22;7731;50.720;6.912;2022-09-23T14:28:33;20.70;1.00
15257;DHT22;7731;50.720;6.912;2022-09-23T14:31:03;20.60;1.00
15257;DHT22;7731;50.720;6.912;2022-09-23T14:33:40;20.50;99.90
15257;DHT22;7731;50.720;6.912;2022-09-23T14:36:15;20.30;23.50
15257;DHT22;7731;50.720;6.912;2022-09-23T14:39:07;20.30;1.00
15257;DHT22;7731;50.720;6.912;2022-09-23T14:41:43;20.20;1.00
15257;DHT22;7731;50.720;6.912;2022-09-23T14:44:19;20.20;1.00
15257;DHT22;7731;50.720;6.912;2022-09-23T14:46:56;20.10;1.00
15257;DHT22;7731;50.720;6.912;2022-09-23T14:49:27;20.10;1.00
15257;DHT22;7731;50.720;6.912;2022-09-23T14:51:59;20.20;1.00
15257;DHT22;7731;50.720;6.912;2022-09-23T14:54:39;20.20;1.00
15257;DHT22;7731;50.720;6.912;2022-09-23T14:57:27;19.90;1.00
15257;DHT22;7731;50.720;6.912;2022-09-23T14:59:59;19.60;1.00
15257;DHT22;7731;50.720;6.912;2022-09-23T15:02:41;19.60;1.00
15257;DHT22;7731;50.720;6.912;2022-09-23T15:05:18;19.60;99.90
15257;DHT22;7731;50.720;6.912;2022-09-23T15:07:55;19.60;4.00
15257;DHT22;7731;50.720;6.912;2022-09-23T15:10:31;19.60;99.90
15257;DHT22;7731;50.720;6.912;2022-09-23T15:13:14;19.60;1.00
15257;DHT22;7731;50.720;6.912;2022-09-23T15:15:50;19.60;1.00
15257;DHT22;7731;50.720;6.912;2022-09-23T15:18:24;19.40;1.00
15257;DHT22;7731;50.720;6.912;2022-09-23T15:21:01;19.50;1.00
15257;DHT22;7731;50.720;6.912;2022-09-23T15:23:44;19.50;1.00
15257;DHT22;7731;50.720;6.912;2022-09-23T15:26:17;19.60;4.30
15257;DHT22;7731;50.720;6.912;2022-09-23T15:28:51;19.60;1.00
15257;DHT22;7731;50.720;6.912;2022-09-23T15:31:24;19.50;99.90
15257;DHT22;7731;50.720;6.912;2022-09-23T15:33:55;19.50;1.00
15257;DHT22;7731;50.720;6.912;2022-09-23T15:36:26;19.50;1.00
15257;DHT22;7731;50.720;6.912;2022-09-23T15:39:00;19.40;1.00
15257;DHT22;7731;50.720;6.912;2022-09-23T15:41:32;19.40;1.00
15257;DHT22;7731;50.720;6.912;2022-09-23T15:44:11;19.20;1.00
15257;DHT22;7731;50.720;6.912;2022-09-23T15:46:44;19.20;1.00
15257;DHT22;7731;50.720;6.912;2022-09-23T15:49:22;19.10;99.90
15257;DHT22;7731;50.720;6.912;2022-09-23T15:51:58;19.00;8.20
15257;DHT22;7731;50.720;6.912;2022-09-23T15:54:30;18.90;1.00
15257;DHT22;7731;50.720;6.912;2022-09-23T15:57:00;19.00;1.00
15257;DHT22;7731;50.720;6.912;2022-09-23T15:59:33;18.80;99.90
15257;DHT22;7731;50.720;6.912;2022-09-23T16:02:13;18.70;99.90
15257;DHT22;7731;50.720;6.912;2022-09-23T16:04:48;18.60;1.00
15257;DHT22;7731;50.720;6.912;2022-09-23T16:07:19;18.50;1.00
15257;DHT22;7731;50.720;6.912;2022-09-23T16:09:54;18.50;1.00
15257;DHT22;7731;50.720;6.912;2022-09-23T16:12:24;18.50;1.00
15257;DHT22;7731;50.720;6.912;2022-09-23T16:14:57;18.40;1.00
15257;DHT22;7731;50.720;6.912;2022-09-23T16:17:30;18.40;1.00
15257;DHT22;7731;50.720;6.912;2022-09-23T16:20:02;18.30;1.00
15257;DHT22;7731;50.720;6.912;2022-09-23T16:22:33;18.30;1.00
15257;DHT22;7731;50.720;6.912;2022-09-23T16:25:04;18.30;1.00
15257;DHT22;7731;50.720;6.912;2022-09-23T16:27:38;18.20;1.00
15257;DHT22;7731;50.720;6.912;2022-09-23T16:30:11;18.20;1.00
15257;DHT22;7731;50.720;6.912;2022-09-23T16:32:42;18.10;1.00
15257;DHT22;7731;50.720;6.912;2022-09-23T16:35:26;18.10;1.00
15257;DHT22;7731;50.720;6.912;2022-09-23T16:37:58;18.10;1.00
15257;DHT22;7731;50.720;6.912;2022-09-23T16:40:28;18.00;1.00
15257;DHT22;7731;50.720;6.912;2022-09-23T16:42:59;18.10;1.00
15257;DHT22;7731;50.720;6.912;2022-09-23T16:45:34;18.10;1.00
15257;DHT22;7731;50.720;6.912;2022-09-23T16:48:10;18.10;1.00
15257;DHT22;7731;50.720;6.912;2022-09-23T16:50:48;17.90;1.00
15257;DHT22;7731;50.720;6.912;2022-09-23T16:53:19;17.90;1.00
15257;DHT22;7731;50.720;6.912;2022-09-23T16:55:51;17.70;1.00
15257;DHT22;7731;50.720;6.912;2022-09-23T16:58:23;17.60;1.00
15257;DHT22;7731;50.720;6.912;2022-09-23T17:00:58;17.50;1.00
15257;DHT22;7731;50.720;6.912;2022-09-23T17:03:41;17.50;1.00
15257;DHT22;7731;50.720;6.912;2022-09-23T17:06:13;17.40;1.00
15257;DHT22;7731;50.720;6.912;2022-09-23T17:08:45;17.50;1.00
15257;DHT22;7731;50.720;6.912;2022-09-23T17:11:24;17.50;1.00
15257;DHT22;7731;50.720;6.912;2022-09-23T17:14:00;17.40;1.00
15257;DHT22;7731;50.720;6.912;2022-09-23T17:16:33;17.40;1.00
15257;DHT22;7731;50.720;6.912;2022-09-23T17:19:08;17.30;1.00